createdAt,value
2023-05-14T00:01:37.737Z,56.56
2023-05-14T00:06:39.920Z,57.18
2023-05-14T00:11:41.700Z,58.23
2023-05-14T00:16:43.480Z,59.75
2023-05-14T00:21:47.102Z,70.49
2023-05-14T00:26:48.822Z,67.03
2023-05-14T00:31:50.789Z,55.39
2023-05-14T00:36:53.240Z,53.17
2023-05-14T00:41:55.424Z,54.22
2023-05-14T00:46:58.740Z,55.55
2023-05-14T00:52:01.162Z,56.11
2023-05-14T00:57:05.752Z,56.84
2023-05-14T01:02:07.659Z,58.03
2023-05-14T01:07:46.998Z,59.69
2023-05-14T01:13:13.760Z,72.50
2023-05-14T01:18:19.023Z,69.63
2023-05-14T01:23:20.790Z,61.43
2023-05-14T01:28:32.509Z,52.27
2023-05-14T01:33:36.636Z,51.08
2023-05-14T01:38:39.408Z,52.41
2023-05-14T01:43:41.917Z,54.25
2023-05-14T01:48:43.696Z,55.74
2023-05-14T01:53:45.887Z,57.19
2023-05-14T01:58:47.659Z,57.60
2023-05-14T02:03:49.464Z,59.55
2023-05-14T02:08:51.408Z,70.55
2023-05-14T02:13:53.083Z,67.96
2023-05-14T02:18:54.876Z,59.25
2023-05-14T02:23:57.049Z,51.25
2023-05-14T02:28:58.902Z,51.22
2023-05-14T02:34:02.341Z,53.01
2023-05-14T02:39:05.028Z,55.18
2023-05-14T02:44:06.714Z,57.52
2023-05-14T02:49:08.791Z,59.02
2023-05-14T02:54:10.667Z,60.01
2023-05-14T02:59:12.545Z,70.70
2023-05-14T03:04:15.341Z,66.84
2023-05-14T03:09:17.123Z,55.61
2023-05-14T03:14:19.015Z,53.14
2023-05-14T03:19:20.879Z,54.63
2023-05-14T03:24:22.652Z,55.80
2023-05-14T03:29:24.450Z,57.17
2023-05-14T03:34:26.305Z,58.69
2023-05-14T03:39:28.078Z,70.27
2023-05-14T03:44:29.851Z,70.06
2023-05-14T03:49:31.800Z,63.57
2023-05-14T03:54:33.711Z,54.80
2023-05-14T03:59:35.488Z,52.80
2023-05-14T04:04:37.425Z,53.65
2023-05-14T04:09:39.342Z,55.79
2023-05-14T04:14:41.335Z,57.30
2023-05-14T04:19:43.096Z,59.66
2023-05-14T04:24:44.788Z,71.24
2023-05-14T04:29:50.312Z,69.14
2023-05-14T04:34:52.106Z,62.00
2023-05-14T04:39:53.979Z,54.30
2023-05-14T04:44:55.862Z,52.27
2023-05-14T04:49:57.960Z,53.66
2023-05-14T04:54:59.712Z,54.72
2023-05-14T05:00:05.176Z,55.41
2023-05-14T05:05:08.508Z,56.57
2023-05-14T05:10:10.599Z,57.32
2023-05-14T05:15:16.076Z,57.85
2023-05-14T05:20:18.771Z,58.02
2023-05-14T05:25:23.475Z,58.36
2023-05-14T05:30:25.708Z,58.35
2023-05-14T05:35:27.854Z,58.21
2023-05-14T05:40:30.131Z,58.45
2023-05-14T05:45:32.050Z,58.56
2023-05-14T05:50:33.890Z,58.38
2023-05-14T05:55:36.174Z,58.10
2023-05-14T06:00:37.963Z,58.02
2023-05-14T06:05:40.541Z,57.38
2023-05-14T06:10:42.532Z,56.78
2023-05-14T06:15:44.412Z,56.05
2023-05-14T06:20:46.386Z,55.59
2023-05-14T06:25:50.864Z,54.61
2023-05-14T06:30:55.774Z,53.67
2023-05-14T06:36:05.180Z,52.67
2023-05-14T06:41:07.101Z,52.14
2023-05-14T06:46:08.975Z,51.64
2023-05-14T06:51:12.806Z,50.82
2023-05-14T06:56:14.726Z,50.23
2023-05-14T07:01:17.130Z,49.02
2023-05-14T07:06:19.252Z,48.24
2023-05-14T07:11:21.747Z,47.47
2023-05-14T07:16:23.580Z,46.43
2023-05-14T07:21:26.525Z,44.21
2023-05-14T07:26:28.404Z,43.35
2023-05-14T07:31:30.521Z,42.63
2023-05-14T07:36:33.283Z,41.77
2023-05-14T07:41:35.174Z,41.21
2023-05-14T07:46:37.041Z,40.19
2023-05-14T07:51:38.924Z,37.56
2023-05-14T07:56:40.896Z,36.19
2023-05-14T08:01:42.788Z,35.04
2023-05-14T08:06:44.966Z,34.79
2023-05-14T08:11:46.948Z,34.39
2023-05-14T08:16:49.158Z,34.16
2023-05-14T08:21:51.216Z,33.58
2023-05-14T08:26:53.103Z,33.37
2023-05-14T08:31:54.981Z,32.62
2023-05-14T08:36:56.949Z,32.51
2023-05-14T08:42:01.598Z,32.64
2023-05-14T08:47:04.283Z,32.36
2023-05-14T08:52:08.100Z,31.39
2023-05-14T08:57:10.910Z,31.30
2023-05-14T09:02:16.361Z,30.43
2023-05-14T09:07:18.458Z,29.78
2023-05-14T09:12:21.656Z,30.02
2023-05-14T09:17:27.385Z,29.86
2023-05-14T09:22:33.093Z,29.38
2023-05-14T09:27:36.094Z,28.49
2023-05-14T09:32:41.990Z,28.41
2023-05-14T09:37:47.244Z,28.47
2023-05-14T09:42:50.020Z,28.36
2023-05-14T09:47:52.978Z,27.16
2023-05-14T09:52:55.719Z,25.94
2023-05-14T09:57:57.592Z,26.38
2023-05-14T10:03:06.451Z,26.40
2023-05-14T10:08:37.312Z,26.38
2023-05-14T10:13:49.775Z,26.54
2023-05-14T10:18:57.849Z,26.69
2023-05-14T10:24:00.436Z,26.51
2023-05-14T10:29:02.832Z,25.15
2023-05-14T10:34:43.721Z,24.55
2023-05-14T10:40:18.867Z,23.80
2023-05-14T10:45:22.712Z,23.68
2023-05-14T10:50:26.411Z,23.66
2023-05-14T10:55:29.118Z,23.97
2023-05-14T11:00:34.987Z,23.73
2023-05-14T11:05:38.807Z,23.74
2023-05-14T11:10:42.844Z,23.03
2023-05-14T11:15:47.691Z,22.44
2023-05-14T11:20:49.473Z,22.43
2023-05-14T11:25:53.756Z,23.00
2023-05-14T11:30:55.989Z,23.85
2023-05-14T11:35:57.860Z,23.72
2023-05-14T11:40:59.965Z,23.60
2023-05-14T11:46:02.071Z,23.85
2023-05-14T11:51:04.520Z,24.34
2023-05-14T11:56:08.284Z,25.18
2023-05-14T12:01:13.907Z,25.94
2023-05-14T12:06:15.888Z,26.10
2023-05-14T12:11:20.941Z,25.93
2023-05-14T12:16:22.900Z,25.57
2023-05-14T12:21:27.460Z,23.67
2023-05-14T12:26:33.653Z,23.45
2023-05-14T12:31:36.340Z,24.07
2023-05-14T12:36:38.533Z,24.29
2023-05-14T12:41:40.392Z,24.58
2023-05-14T12:46:42.410Z,24.92
2023-05-14T12:51:45.169Z,24.83
2023-05-14T12:56:47.050Z,25.04
2023-05-14T13:01:48.960Z,25.61
2023-05-14T13:06:50.856Z,26.19
2023-05-14T13:11:53.299Z,25.38
2023-05-14T13:16:55.532Z,24.53
2023-05-14T13:21:57.462Z,24.26
2023-05-14T13:26:59.271Z,23.82
2023-05-14T13:32:01.522Z,23.21
2023-05-14T13:37:03.843Z,22.36
2023-05-14T13:42:06.310Z,22.75
2023-05-14T13:47:08.282Z,23.26
2023-05-14T13:52:10.058Z,23.58
2023-05-14T13:57:11.757Z,23.17
2023-05-14T14:02:14.841Z,22.35
2023-05-14T14:07:16.619Z,22.06
2023-05-14T14:12:18.521Z,21.97
2023-05-14T14:17:20.578Z,21.12
2023-05-14T14:22:23.171Z,21.17
2023-05-14T14:27:27.316Z,20.65
2023-05-14T14:32:29.175Z,20.08
2023-05-14T14:37:31.001Z,20.25
2023-05-14T14:42:34.792Z,20.40
2023-05-14T14:47:36.795Z,20.95
2023-05-14T14:52:40.502Z,21.50
2023-05-14T14:57:42.259Z,21.49
2023-05-14T15:02:44.111Z,21.28
2023-05-14T15:07:46.329Z,20.99
2023-05-14T15:12:48.406Z,19.84
2023-05-14T15:17:50.611Z,19.58
2023-05-14T15:22:55.242Z,19.12
2023-05-14T15:27:57.205Z,19.35
2023-05-14T15:32:59.140Z,19.81
2023-05-14T15:38:01.065Z,20.53
2023-05-14T15:43:03.414Z,20.97
2023-05-14T15:48:05.905Z,21.39
2023-05-14T15:53:08.441Z,21.82
2023-05-14T15:58:12.356Z,21.73
2023-05-14T16:03:14.337Z,21.34
2023-05-14T16:08:16.334Z,20.62
2023-05-14T16:13:19.123Z,20.34
2023-05-14T16:18:21.708Z,20.37
2023-05-14T16:23:23.691Z,20.46
2023-05-14T16:28:25.668Z,20.11
2023-05-14T16:33:27.545Z,20.52
2023-05-14T16:38:29.433Z,20.73
2023-05-14T16:43:31.212Z,21.12
2023-05-14T16:48:33.120Z,21.07
2023-05-14T16:53:35.765Z,21.19
2023-05-14T16:58:37.754Z,21.48
2023-05-14T17:03:40.338Z,21.83
2023-05-14T17:08:42.233Z,21.94
2023-05-14T17:13:44.196Z,22.28
2023-05-14T17:18:48.765Z,22.66
2023-05-14T17:23:50.717Z,22.85
2023-05-14T17:28:52.600Z,23.16
2023-05-14T17:33:55.197Z,23.30
2023-05-14T17:38:57.691Z,23.52
2023-05-14T17:43:59.784Z,23.87
2023-05-14T17:49:01.969Z,24.03
2023-05-14T17:54:04.155Z,24.52
2023-05-14T17:59:06.735Z,24.81
2023-05-14T18:04:08.666Z,25.42
2023-05-14T18:09:10.933Z,25.72
2023-05-14T18:14:12.975Z,26.48
2023-05-14T18:19:15.317Z,27.35
2023-05-14T18:24:17.673Z,28.12
2023-05-14T18:29:19.566Z,28.99
2023-05-14T18:34:21.474Z,29.75
2023-05-14T18:39:23.426Z,30.54
2023-05-14T18:44:25.311Z,31.16
2023-05-14T18:49:27.368Z,31.75
2023-05-14T18:54:29.356Z,32.61
2023-05-14T18:59:31.530Z,33.12
2023-05-14T19:04:44.271Z,33.63
2023-05-14T19:09:52.790Z,34.32
2023-05-14T19:14:54.862Z,34.50
2023-05-14T19:19:56.966Z,34.91
2023-05-14T19:24:58.932Z,35.48
2023-05-14T19:30:01.033Z,35.91
2023-05-14T19:35:05.180Z,36.61
2023-05-14T19:40:08.582Z,37.35
2023-05-14T19:45:11.147Z,37.45
2023-05-14T19:50:13.133Z,38.13
2023-05-14T19:55:15.111Z,38.64
2023-05-14T20:00:17.611Z,39.45
2023-05-14T20:05:19.695Z,40.55
2023-05-14T20:10:21.649Z,41.38
2023-05-14T20:15:23.645Z,41.88
2023-05-14T20:20:27.097Z,42.22
2023-05-14T20:25:32.240Z,43.03
2023-05-14T20:30:34.631Z,43.45
2023-05-14T20:35:36.730Z,43.96
2023-05-14T20:40:38.874Z,43.79
2023-05-14T20:45:41.266Z,43.68
2023-05-14T20:50:43.920Z,44.18
2023-05-14T20:55:45.742Z,44.36
2023-05-14T21:00:47.719Z,44.98
2023-05-14T21:05:49.559Z,45.79
2023-05-14T21:10:51.272Z,46.18
2023-05-14T21:15:53.194Z,45.62
2023-05-14T21:20:55.222Z,46.36
2023-05-14T21:25:57.528Z,47.14
2023-05-14T21:30:59.356Z,46.65
2023-05-14T21:36:01.513Z,45.62
2023-05-14T21:41:03.361Z,47.33
2023-05-14T21:46:05.145Z,48.09
2023-05-14T21:51:07.510Z,48.91
2023-05-14T21:56:09.599Z,49.23
2023-05-14T22:01:11.501Z,49.66
2023-05-14T22:06:13.657Z,50.09
2023-05-14T22:11:15.544Z,50.57
2023-05-14T22:16:17.232Z,50.90
2023-05-14T22:21:19.187Z,50.87
2023-05-14T22:26:23.656Z,51.77
2023-05-14T22:31:25.432Z,52.24
2023-05-14T22:36:27.479Z,52.54
2023-05-14T22:41:29.475Z,52.03
2023-05-14T22:46:31.255Z,51.80
2023-05-14T22:51:33.227Z,52.12
2023-05-14T22:56:35.508Z,53.55
2023-05-14T23:01:37.448Z,54.18
2023-05-14T23:06:39.781Z,54.63
2023-05-14T23:11:41.559Z,54.81
2023-05-14T23:16:43.948Z,54.93
2023-05-14T23:21:46.029Z,54.86
2023-05-14T23:26:47.917Z,55.23
2023-05-14T23:31:50.451Z,56.25
2023-05-14T23:36:52.882Z,56.33
2023-05-14T23:41:54.755Z,56.57
2023-05-14T23:46:56.528Z,56.58
2023-05-14T23:51:58.304Z,56.75
2023-05-14T23:57:02.702Z,56.86
